createdAt,value
2022-10-09T00:02:15.688Z,99692.53
2022-10-09T00:05:02.594Z,99691.41
2022-10-09T00:07:49.736Z,99689.31
2022-10-09T00:10:43.440Z,99693.50
2022-10-09T00:13:30.276Z,99692.91
2022-10-09T00:16:17.896Z,99686.31
2022-10-09T00:19:04.739Z,99689.91
2022-10-09T00:21:56.316Z,99690.19
2022-10-09T00:24:43.422Z,99693.88
2022-10-09T00:27:30.235Z,99690.06
2022-10-09T00:30:17.125Z,99689.50
2022-10-09T00:33:03.915Z,99697.47
2022-10-09T00:35:50.955Z,99699.91
2022-10-09T00:38:40.156Z,99696.31
2022-10-09T00:41:29.404Z,99691.38
2022-10-09T00:44:47.359Z,99682.28
2022-10-09T00:47:47.845Z,99682.19
2022-10-09T00:50:56.539Z,99694.50
2022-10-09T00:53:43.352Z,99681.81
2022-10-09T00:56:30.383Z,99671.25
2022-10-09T00:59:17.907Z,99689.38
2022-10-09T01:02:07.462Z,99692.50
2022-10-09T01:04:54.287Z,99686.53
2022-10-09T01:08:12.324Z,99685.59
2022-10-09T01:11:12.287Z,99688.78
2022-10-09T01:14:27.679Z,99693.25
2022-10-09T01:17:26.251Z,99698.63
2022-10-09T01:20:37.260Z,99688.13
2022-10-09T01:24:13.412Z,99681.84
2022-10-09T01:27:21.959Z,99683.22
2022-10-09T01:30:12.406Z,99669.22
2022-10-09T01:33:03.135Z,99678.09
2022-10-09T01:35:52.690Z,99669.59
2022-10-09T01:38:41.841Z,99671.00
2022-10-09T01:41:29.768Z,99669.13
2022-10-09T01:44:31.547Z,99661.75
2022-10-09T01:47:20.961Z,99666.44
2022-10-09T01:50:27.353Z,99672.19
2022-10-09T01:53:19.747Z,99669.38
2022-10-09T01:56:14.445Z,99666.53
2022-10-09T01:59:06.938Z,99672.59
2022-10-09T02:01:59.267Z,99663.22
2022-10-09T02:04:47.718Z,99659.34
2022-10-09T02:07:34.792Z,99650.88
2022-10-09T02:10:23.502Z,99646.84
2022-10-09T02:13:10.620Z,99650.94
2022-10-09T02:16:10.166Z,99648.44
2022-10-09T02:19:00.710Z,99650.16
2022-10-09T02:21:53.685Z,99647.03
2022-10-09T02:24:42.441Z,99649.75
2022-10-09T02:27:30.093Z,99657.63
2022-10-09T02:30:20.451Z,99650.78
2022-10-09T02:33:07.366Z,99642.06
2022-10-09T02:35:33.944Z,99649.78
2022-10-09T02:38:00.364Z,99645.13
2022-10-09T02:40:28.907Z,99648.63
2022-10-09T02:42:57.796Z,99647.13
2022-10-09T02:45:26.628Z,99641.38
2022-10-09T02:47:53.189Z,99645.66
2022-10-09T02:50:19.733Z,99646.69
2022-10-09T02:52:46.415Z,99632.94
2022-10-09T02:55:15.346Z,99639.94
2022-10-09T02:57:41.817Z,99644.78
2022-10-09T03:00:11.250Z,99643.78
2022-10-09T03:02:40.459Z,99647.13
2022-10-09T03:05:09.912Z,99650.63
2022-10-09T03:07:36.378Z,99654.44
2022-10-09T03:10:02.946Z,99650.38
2022-10-09T03:12:31.740Z,99655.22
2022-10-09T03:15:00.574Z,99648.31
2022-10-09T03:17:27.023Z,99633.22
2022-10-09T03:19:53.650Z,99636.06
2022-10-09T03:22:22.444Z,99647.00
2022-10-09T03:24:48.855Z,99647.59
2022-10-09T03:27:15.288Z,99640.72
2022-10-09T03:29:41.736Z,99650.56
2022-10-09T03:32:08.505Z,99643.41
2022-10-09T03:34:37.554Z,99644.75
2022-10-09T03:37:04.324Z,99652.44
2022-10-09T03:39:30.935Z,99633.97
2022-10-09T03:41:59.928Z,99645.44
2022-10-09T03:44:26.369Z,99645.09
2022-10-09T03:46:57.906Z,99651.50
2022-10-09T03:49:24.478Z,99665.44
2022-10-09T03:51:51.042Z,99660.81
2022-10-09T03:54:17.497Z,99665.19
2022-10-09T03:56:43.970Z,99659.97
2022-10-09T03:59:10.472Z,99656.53
2022-10-09T04:01:36.930Z,99652.09
2022-10-09T04:04:06.808Z,99657.41
2022-10-09T04:06:33.261Z,99658.81
2022-10-09T04:09:01.130Z,99662.69
2022-10-09T04:11:27.604Z,99668.97
2022-10-09T04:13:56.320Z,99663.31
2022-10-09T04:16:22.840Z,99667.31
2022-10-09T04:18:49.309Z,99658.53
2022-10-09T04:21:15.857Z,99644.63
2022-10-09T04:23:44.708Z,99652.22
2022-10-09T04:26:12.633Z,99654.34
2022-10-09T04:28:39.547Z,99652.59
2022-10-09T04:31:05.981Z,99660.38
2022-10-09T04:33:32.435Z,99666.69
2022-10-09T04:35:58.894Z,99659.38
2022-10-09T04:38:25.439Z,99660.72
2022-10-09T04:40:57.748Z,99665.53
2022-10-09T04:43:28.121Z,99651.13
2022-10-09T04:45:57.212Z,99665.88
2022-10-09T04:48:25.929Z,99657.69
2022-10-09T04:50:52.502Z,99654.28
2022-10-09T04:53:21.040Z,99654.97
2022-10-09T04:55:47.503Z,99663.78
2022-10-09T04:58:14.465Z,99658.22
2022-10-09T05:00:45.526Z,99649.31
2022-10-09T05:03:12.932Z,99633.31
2022-10-09T05:05:41.684Z,99632.63
2022-10-09T05:08:08.221Z,99592.22
2022-10-09T05:10:37.147Z,99588.59
2022-10-09T05:13:06.166Z,99596.53
2022-10-09T05:15:36.931Z,99596.28
2022-10-09T05:18:03.463Z,99598.00
2022-10-09T05:20:29.952Z,99607.72
2022-10-09T05:22:59.066Z,99601.81
2022-10-09T05:25:25.549Z,99601.19
2022-10-09T05:27:54.429Z,99614.16
2022-10-09T05:30:20.859Z,99610.13
2022-10-09T05:32:50.051Z,99621.94
2022-10-09T05:35:19.121Z,99630.19
2022-10-09T05:37:45.718Z,99628.28
2022-10-09T05:40:12.249Z,99616.47
2022-10-09T05:42:38.704Z,99631.63
2022-10-09T05:45:08.441Z,99638.78
2022-10-09T05:47:34.904Z,99631.94
2022-10-09T05:50:01.431Z,99627.91
2022-10-09T05:52:30.320Z,99632.91
2022-10-09T05:54:57.175Z,99644.31
2022-10-09T05:57:23.634Z,99634.59
2022-10-09T05:59:50.179Z,99629.44
2022-10-09T06:02:16.656Z,99625.03
2022-10-09T06:04:43.168Z,99622.06
2022-10-09T06:07:13.169Z,99639.78
2022-10-09T06:09:41.904Z,99635.81
2022-10-09T06:12:08.379Z,99638.00
2022-10-09T06:14:34.814Z,99640.53
2022-10-09T06:17:01.719Z,99640.38
2022-10-09T06:19:30.558Z,99651.63
2022-10-09T06:21:59.098Z,99646.25
2022-10-09T06:24:29.079Z,99636.06
2022-10-09T06:26:57.238Z,99650.44
2022-10-09T06:29:24.077Z,99649.88
2022-10-09T06:31:50.600Z,99653.53
2022-10-09T06:34:17.256Z,99651.78
2022-10-09T06:36:43.774Z,99661.78
2022-10-09T06:39:12.833Z,99674.78
2022-10-09T06:41:39.288Z,99678.81
2022-10-09T06:44:37.403Z,99684.44
2022-10-09T06:47:03.875Z,99691.88
2022-10-09T06:49:30.310Z,99701.72
2022-10-09T06:51:56.765Z,99713.91
2022-10-09T06:54:23.231Z,99721.34
2022-10-09T06:56:52.022Z,99736.47
2022-10-09T06:59:18.486Z,99737.69
2022-10-09T07:01:47.277Z,99737.59
2022-10-09T07:04:14.670Z,99724.72
2022-10-09T07:06:43.990Z,99718.78
2022-10-09T07:09:12.491Z,99715.22
2022-10-09T07:11:42.853Z,99711.78
2022-10-09T07:14:11.029Z,99720.50
2022-10-09T07:16:40.952Z,99698.94
2022-10-09T07:19:11.095Z,99691.63
2022-10-09T07:21:43.316Z,99673.75
2022-10-09T07:24:13.243Z,99673.25
2022-10-09T07:26:46.403Z,99674.47
2022-10-09T07:29:14.314Z,99667.19
2022-10-09T07:31:40.846Z,99653.97
2022-10-09T07:34:07.764Z,99645.75
2022-10-09T07:36:34.763Z,99644.28
2022-10-09T07:39:04.141Z,99642.94
2022-10-09T07:41:33.108Z,99619.94
2022-10-09T07:43:59.527Z,99613.28
2022-10-09T07:46:33.705Z,99614.28
2022-10-09T07:49:00.839Z,99605.78
2022-10-09T07:51:29.456Z,99614.38
2022-10-09T07:53:57.148Z,99609.47
2022-10-09T07:56:29.592Z,99601.09
2022-10-09T07:58:58.282Z,99612.69
2022-10-09T08:01:27.445Z,99610.09
2022-10-09T08:03:54.495Z,99609.75
2022-10-09T08:06:23.243Z,99604.22
2022-10-09T08:08:51.340Z,99627.22
2022-10-09T08:11:18.929Z,99634.53
2022-10-09T08:13:49.032Z,99653.06
2022-10-09T08:16:17.103Z,99679.78
2022-10-09T08:18:43.672Z,99735.41
2022-10-09T08:21:15.527Z,99816.09
2022-10-09T08:23:42.240Z,99852.44
2022-10-09T08:26:16.381Z,99898.91
2022-10-09T08:28:44.507Z,99908.25
2022-10-09T08:31:13.541Z,99913.00
2022-10-09T08:33:40.179Z,99938.72
2022-10-09T08:36:08.101Z,99833.06
2022-10-09T08:38:47.226Z,99639.38
2022-10-09T08:41:29.362Z,99413.81
2022-10-09T08:44:02.715Z,99642.28
2022-10-09T08:46:36.323Z,99224.28
2022-10-09T08:49:05.176Z,99226.94
2022-10-09T08:51:37.829Z,99037.22
2022-10-09T08:54:10.892Z,98619.94
2022-10-09T08:56:37.998Z,98590.59
2022-10-09T08:59:04.597Z,98653.44
2022-10-09T09:01:34.442Z,98537.09
2022-10-09T09:04:30.548Z,98548.81
2022-10-09T09:07:09.486Z,98489.25
2022-10-09T09:09:41.872Z,98839.66
2022-10-09T09:12:20.543Z,98945.81
2022-10-09T09:15:01.706Z,98962.69
2022-10-09T09:17:46.167Z,98705.56
2022-10-09T09:20:32.583Z,98878.81
2022-10-09T09:23:01.651Z,99012.09
2022-10-09T09:25:41.829Z,98862.66
2022-10-09T09:28:33.271Z,98676.97
2022-10-09T09:31:08.602Z,99156.53
2022-10-09T09:33:44.978Z,99081.38
2022-10-09T09:36:25.372Z,99019.25
2022-10-09T09:41:41.106Z,98660.63
2022-10-09T09:44:13.476Z,98904.31
2022-10-09T09:46:43.885Z,98934.47
2022-10-09T09:49:23.321Z,98994.06
2022-10-09T09:51:50.755Z,98633.97
2022-10-09T09:54:22.004Z,99092.75
2022-10-09T09:59:44.696Z,98832.44
2022-10-09T10:02:18.627Z,98362.53
2022-10-09T10:05:00.699Z,98447.38
2022-10-09T10:07:38.260Z,98537.88
2022-10-09T10:10:24.719Z,98499.19
2022-10-09T10:12:54.094Z,98525.72
2022-10-09T10:15:32.452Z,99115.94
2022-10-09T10:18:03.922Z,98446.72
2022-10-09T10:20:41.911Z,98374.78
2022-10-09T10:23:34.774Z,98541.78
2022-10-09T10:26:19.485Z,98526.28
2022-10-09T10:28:56.816Z,98456.88
2022-10-09T10:32:13.456Z,98592.16
2022-10-09T10:35:03.313Z,98690.03
2022-10-09T10:37:42.345Z,98571.19
2022-10-09T10:40:18.089Z,98534.53
2022-10-09T10:43:01.822Z,98681.06
2022-10-09T10:45:37.414Z,99272.31
2022-10-09T10:48:09.349Z,98895.16
2022-10-09T10:50:42.990Z,98595.09
2022-10-09T10:53:39.736Z,98429.34
2022-10-09T10:56:15.030Z,98321.84
2022-10-09T10:59:07.908Z,98302.03
2022-10-09T11:01:58.789Z,98321.88
2022-10-09T11:04:55.912Z,98341.06
2022-10-09T11:07:48.403Z,98395.41
2022-10-09T11:10:24.016Z,98440.19
2022-10-09T11:12:56.268Z,98431.13
2022-10-09T11:15:58.800Z,98471.28
2022-10-09T11:18:46.794Z,98447.19
2022-10-09T11:21:25.493Z,98415.16
2022-10-09T11:23:57.985Z,98376.97
2022-10-09T11:26:36.474Z,98369.28
2022-10-09T11:29:06.525Z,98415.94
2022-10-09T11:31:44.440Z,98384.94
2022-10-09T11:34:27.702Z,98407.19
2022-10-09T11:36:55.328Z,98363.28
2022-10-09T11:39:26.390Z,98369.66
2022-10-09T11:41:54.754Z,98357.88
2022-10-09T11:44:46.295Z,98360.56
2022-10-09T11:47:17.624Z,98371.16
2022-10-09T11:50:14.091Z,98359.41
2022-10-09T11:52:49.309Z,98308.56
2022-10-09T11:55:27.749Z,98298.72
2022-10-09T11:58:09.014Z,98322.69
2022-10-09T12:00:37.990Z,98342.19
2022-10-09T12:03:09.759Z,98308.34
2022-10-09T12:05:44.907Z,98285.25
2022-10-09T12:08:25.179Z,98279.22
2022-10-09T12:11:07.270Z,98298.59
2022-10-09T12:13:36.646Z,98277.38
2022-10-09T12:16:07.858Z,98258.97
2022-10-09T12:18:38.204Z,98260.53
2022-10-09T12:21:18.345Z,98265.63
2022-10-09T12:23:47.699Z,98266.47
2022-10-09T12:26:15.514Z,98249.91
2022-10-09T12:28:54.185Z,98237.31
2022-10-09T12:31:27.838Z,98236.09
2022-10-09T12:34:20.800Z,98237.38
2022-10-09T12:36:49.802Z,98247.72
2022-10-09T12:39:24.219Z,98224.84
2022-10-09T12:41:55.061Z,98229.56
2022-10-09T12:44:53.252Z,98224.56
2022-10-09T12:47:28.544Z,98217.00
2022-10-09T12:50:21.799Z,98210.53
2022-10-09T12:52:48.586Z,98209.94
2022-10-09T12:55:25.046Z,98213.50
2022-10-09T12:57:52.764Z,98197.94
2022-10-09T13:00:19.533Z,98203.75
2022-10-09T13:02:48.603Z,98202.22
2022-10-09T13:05:15.779Z,98183.38
2022-10-09T13:07:52.441Z,98185.38
2022-10-09T13:10:22.285Z,98189.66
2022-10-09T13:12:53.329Z,98178.06
2022-10-09T13:15:36.947Z,98180.00
2022-10-09T13:18:23.722Z,98171.09
2022-10-09T13:21:20.146Z,98182.88
2022-10-09T13:23:48.890Z,98176.91
2022-10-09T13:26:30.025Z,98174.72
2022-10-09T13:28:59.471Z,98164.94
2022-10-09T13:31:26.517Z,98181.81
2022-10-09T13:33:53.007Z,98170.84
2022-10-09T13:36:20.264Z,98171.19
2022-10-09T13:38:47.537Z,98155.13
2022-10-09T13:41:23.035Z,98156.03
2022-10-09T13:43:51.973Z,98134.56
2022-10-09T13:46:18.501Z,98145.97
2022-10-09T13:48:45.039Z,98147.25
2022-10-09T13:51:13.902Z,98133.56
2022-10-09T13:53:40.343Z,98140.94
2022-10-09T13:56:08.440Z,98174.59
2022-10-09T13:58:37.220Z,98178.06
2022-10-09T14:01:03.741Z,98169.75
2022-10-09T14:03:32.751Z,98200.63
2022-10-09T14:06:00.738Z,98177.41
2022-10-09T14:08:27.232Z,98175.63
2022-10-09T14:10:58.986Z,98176.88
2022-10-09T14:13:25.470Z,98157.66
2022-10-09T14:15:54.476Z,98145.59
2022-10-09T14:18:25.991Z,98138.53
2022-10-09T14:20:54.854Z,98119.72
2022-10-09T14:23:21.314Z,98102.44
2022-10-09T14:25:47.765Z,98117.13
2022-10-09T14:28:19.195Z,98124.44
2022-10-09T14:30:45.736Z,98103.00
2022-10-09T14:33:14.765Z,98086.16
2022-10-09T14:35:41.244Z,98108.16
2022-10-09T14:38:07.730Z,98169.53
2022-10-09T14:40:34.205Z,98189.66
2022-10-09T14:43:00.659Z,98229.22
2022-10-09T14:45:28.904Z,98208.38
2022-10-09T14:47:55.358Z,98163.81
2022-10-09T14:50:23.966Z,98151.13
2022-10-09T14:52:50.801Z,98207.50
2022-10-09T14:55:20.182Z,98172.69
2022-10-09T14:57:46.646Z,98108.06
2022-10-09T15:00:13.745Z,98101.28
2022-10-09T15:02:40.242Z,98077.28
2022-10-09T15:05:09.220Z,98115.22
2022-10-09T15:07:38.088Z,98093.50
2022-10-09T15:10:04.876Z,98092.56
2022-10-09T15:12:31.320Z,98082.22
2022-10-09T15:14:57.767Z,98093.59
2022-10-09T15:17:24.258Z,98101.06
2022-10-09T15:19:50.779Z,98070.59
2022-10-09T15:22:17.218Z,98062.34
2022-10-09T15:24:43.660Z,98045.84
2022-10-09T15:27:10.100Z,98041.72
2022-10-09T15:29:36.724Z,98031.59
2022-10-09T15:32:03.772Z,98034.47
2022-10-09T15:34:32.369Z,98030.44
2022-10-09T15:37:01.347Z,98029.09
2022-10-09T15:39:27.817Z,98028.97
2022-10-09T15:41:54.254Z,98019.47
2022-10-09T15:44:21.426Z,98026.66
2022-10-09T15:46:49.160Z,98024.38
2022-10-09T15:49:15.932Z,98023.53
2022-10-09T15:51:42.774Z,98016.91
2022-10-09T15:54:11.942Z,98028.09
2022-10-09T15:56:40.174Z,98026.63
2022-10-09T15:59:07.331Z,98024.28
2022-10-09T16:01:33.817Z,98034.84
2022-10-09T16:04:00.307Z,98038.47
2022-10-09T16:06:26.838Z,98042.91
2022-10-09T16:08:58.215Z,98056.97
2022-10-09T16:11:26.776Z,98048.53
2022-10-09T16:13:56.354Z,98063.69
2022-10-09T16:16:25.470Z,98075.47
2022-10-09T16:18:52.389Z,98105.38
2022-10-09T16:21:27.093Z,98146.97
2022-10-09T16:23:58.386Z,98143.91
2022-10-09T16:26:27.757Z,98154.28
2022-10-09T16:28:54.282Z,98185.09
2022-10-09T16:31:20.736Z,98220.09
2022-10-09T16:33:49.650Z,98245.88
2022-10-09T16:36:16.734Z,98292.94
2022-10-09T16:38:43.654Z,98362.41
2022-10-09T16:41:17.776Z,98367.94
2022-10-09T16:43:46.357Z,98376.50
2022-10-09T16:46:16.696Z,98398.78
2022-10-09T16:48:43.179Z,98461.66
2022-10-09T16:51:12.214Z,98624.22
2022-10-09T16:53:39.396Z,98610.41
2022-10-09T16:56:15.622Z,98595.69
2022-10-09T16:58:43.413Z,98617.94
2022-10-09T17:01:10.851Z,98673.16
2022-10-09T17:03:57.686Z,98728.69
2022-10-09T17:06:45.587Z,98751.09
2022-10-09T17:09:33.418Z,98801.66
2022-10-09T17:12:20.551Z,98830.97
2022-10-09T17:15:07.860Z,98993.94
2022-10-09T17:17:54.636Z,99061.47
2022-10-09T17:20:41.423Z,99201.88
2022-10-09T17:23:28.421Z,99221.59
2022-10-09T17:26:18.673Z,99313.13
2022-10-09T17:29:05.560Z,99322.06
2022-10-09T17:31:52.656Z,99324.75
2022-10-09T17:34:42.972Z,99302.09
2022-10-09T17:37:32.164Z,99304.06
2022-10-09T17:40:18.920Z,99259.31
2022-10-09T17:43:07.192Z,99260.75
2022-10-09T17:45:53.928Z,99304.94
2022-10-09T17:48:44.945Z,99356.69
2022-10-09T17:51:34.454Z,99419.53
2022-10-09T17:54:21.539Z,99427.97
2022-10-09T17:57:12.192Z,99428.81
2022-10-09T17:59:58.988Z,99421.91
2022-10-09T18:02:46.671Z,99417.47
2022-10-09T18:05:34.041Z,99418.63
2022-10-09T18:08:22.111Z,99437.66
2022-10-09T18:11:12.064Z,99440.44
2022-10-09T18:13:58.967Z,99459.44
2022-10-09T18:16:45.746Z,99466.13
2022-10-09T18:19:32.538Z,99460.88
2022-10-09T18:22:21.429Z,99473.94
2022-10-09T18:25:08.376Z,99482.81
2022-10-09T18:27:55.172Z,99470.88
2022-10-09T18:30:46.080Z,99455.88
2022-10-09T18:33:35.535Z,99468.84
2022-10-09T18:36:24.524Z,99459.91
2022-10-09T18:39:14.742Z,99461.00
2022-10-09T18:42:02.660Z,99459.66
2022-10-09T18:44:49.473Z,99458.22
2022-10-09T18:47:36.309Z,99449.69
2022-10-09T18:50:23.538Z,99444.50
2022-10-09T18:53:11.402Z,99449.13
2022-10-09T18:55:58.414Z,99452.03
2022-10-09T18:58:45.584Z,99434.13
2022-10-09T19:01:32.555Z,99438.84
2022-10-09T19:04:19.596Z,99433.59
2022-10-09T19:07:06.450Z,99433.72
2022-10-09T19:09:57.168Z,99429.47
2022-10-09T19:12:44.338Z,99424.03
2022-10-09T19:15:31.164Z,99426.09
2022-10-09T19:18:20.276Z,99426.78
2022-10-09T19:21:11.515Z,99423.91
2022-10-09T19:24:03.465Z,99422.81
2022-10-09T19:26:50.567Z,99420.16
2022-10-09T19:29:37.443Z,99410.78
2022-10-09T19:32:26.750Z,99415.28
2022-10-09T19:35:14.982Z,99405.72
2022-10-09T19:38:03.180Z,99400.03
2022-10-09T19:40:51.185Z,99401.09
2022-10-09T19:43:38.386Z,99396.00
2022-10-09T19:46:25.640Z,99392.38
2022-10-09T19:49:12.702Z,99392.03
2022-10-09T19:52:01.738Z,99387.66
2022-10-09T19:54:48.653Z,99391.53
2022-10-09T19:57:35.436Z,99384.25
2022-10-09T20:00:22.208Z,99384.63
2022-10-09T20:03:09.568Z,99377.72
2022-10-09T20:06:02.720Z,99382.09
2022-10-09T20:08:49.472Z,99365.81
2022-10-09T20:11:36.648Z,99370.69
2022-10-09T20:14:23.536Z,99362.69
2022-10-09T20:17:10.302Z,99361.59
2022-10-09T20:19:57.089Z,99355.66
2022-10-09T20:22:43.828Z,99353.97
2022-10-09T20:25:30.580Z,99366.31
2022-10-09T20:28:17.504Z,99359.06
2022-10-09T20:31:06.916Z,99368.72
2022-10-09T20:33:55.985Z,99366.31
2022-10-09T20:36:42.769Z,99357.47
2022-10-09T20:39:29.784Z,99357.69
2022-10-09T20:42:16.572Z,99362.91
2022-10-09T20:45:03.616Z,99360.09
2022-10-09T20:47:50.425Z,99342.19
2022-10-09T20:50:38.715Z,99351.63
2022-10-09T20:53:25.539Z,99322.81
2022-10-09T20:56:14.425Z,99335.63
2022-10-09T20:59:01.877Z,99337.47
2022-10-09T21:01:48.756Z,99344.25
2022-10-09T21:04:35.547Z,99351.06
2022-10-09T21:07:22.517Z,99327.06
2022-10-09T21:10:09.802Z,99335.19
2022-10-09T21:12:56.647Z,99332.13
2022-10-09T21:15:45.557Z,99325.72
2022-10-09T21:18:35.143Z,99340.72
2022-10-09T21:21:22.236Z,99317.94
2022-10-09T21:24:09.011Z,99317.38
2022-10-09T21:26:55.859Z,99325.38
2022-10-09T21:29:42.675Z,99303.06
2022-10-09T21:32:29.421Z,99321.34
2022-10-09T21:35:16.187Z,99312.50
2022-10-09T21:38:02.935Z,99291.16
2022-10-09T21:40:50.005Z,99296.75
2022-10-09T21:43:36.738Z,99298.06
2022-10-09T21:46:23.731Z,99294.56
2022-10-09T21:49:24.597Z,99297.34
2022-10-09T21:52:11.401Z,99290.09
2022-10-09T21:54:58.166Z,99277.84
2022-10-09T21:57:45.263Z,99245.25
2022-10-09T22:00:32.820Z,99220.63
2022-10-09T22:03:24.175Z,99209.66
2022-10-09T22:06:18.449Z,99213.66
2022-10-09T22:09:05.637Z,99223.34
2022-10-09T22:11:52.578Z,99225.28
2022-10-09T22:14:39.331Z,99223.72
2022-10-09T22:17:26.293Z,99222.75
2022-10-09T22:20:13.099Z,99232.53
2022-10-09T22:22:59.873Z,99235.72
2022-10-09T22:26:01.651Z,99248.41
2022-10-09T22:28:49.510Z,99230.97
2022-10-09T22:31:36.315Z,99233.41
2022-10-09T22:34:23.101Z,99228.41
2022-10-09T22:37:09.932Z,99220.56
2022-10-09T22:39:59.040Z,99214.28
2022-10-09T22:42:45.951Z,99229.41
2022-10-09T22:45:37.497Z,99228.19
2022-10-09T22:48:24.380Z,99222.84
2022-10-09T22:51:13.587Z,99231.81
2022-10-09T22:54:00.682Z,99209.53
2022-10-09T22:56:50.030Z,99224.31
2022-10-09T22:59:36.806Z,99215.22
2022-10-09T23:02:23.592Z,99220.09
2022-10-09T23:05:10.356Z,99209.31
2022-10-09T23:07:57.095Z,99198.03
2022-10-09T23:10:44.111Z,99189.94
2022-10-09T23:13:30.965Z,99190.53
2022-10-09T23:16:17.776Z,99170.28
2022-10-09T23:19:07.091Z,99183.34
2022-10-09T23:21:54.076Z,99188.97
2022-10-09T23:24:40.992Z,99169.91
2022-10-09T23:27:27.908Z,99180.94
2022-10-09T23:30:14.798Z,99177.66
2022-10-09T23:33:01.605Z,99166.16
2022-10-09T23:35:48.355Z,99164.94
2022-10-09T23:38:36.189Z,99171.59
2022-10-09T23:41:25.548Z,99182.13
2022-10-09T23:44:12.362Z,99156.69
2022-10-09T23:46:59.249Z,99168.56
2022-10-09T23:49:46.055Z,99168.06
2022-10-09T23:52:33.229Z,99164.44
2022-10-09T23:55:20.003Z,99175.22
2022-10-09T23:58:06.881Z,99170.50
